Bushey, United Kingdom
Current Conditions -  °F | °C
As of 5:50 AM on Wednesday 26 Nov 2014 (Local Time) from EGWU Reporting Station
Few Clouds Few Clouds  
Wind Chill: 44°   Ceiling: Unl
Heat Index: 46°   Visibility: 5mi
Dew Point: 45°   Wind: 5mph
Humidity: 93%   Direction: 50°NE
Pressure: 29.88"   Gusts: NA
Location:  51.64°N, 0.36°W
Report Text: EGWU 260550Z AUTO 05004KT 8000 // FEW018/// 08/07 Q1012
Loading
Personal Weather Stations






























Interactive Weather Map New forecast layout! Learn more

10-Day Weather Forecast

Advertisements
Track Severe Weather on mobile